This is the latest recevied weather packets stored in our database for station/object N2QKV-13. If no packets are shown the sender has not sent any weather packets the latest 1 day(s).
| Time | Temp. | Humidity | Pressure | Rain* | Wind** | Luminosity | Snow |
|---|---|---|---|---|---|---|---|
| 1778087404 | 18.89° C | 81% | 1008.7 hPa | 0 mm | - | - | - |
| 1778086804 | 18.89° C | 80% | 1009.5 hPa | 0 mm | - | - | - |
| 1778084404 | 18.33° C | 81% | 1010 hPa | 0 mm | - | - | - |
| 1778081704 | 20° C | 75% | 1009.8 hPa | 0 mm | - | - | - |
| 1778079904 | 20.56° C | 72% | 1010 hPa | 0 mm | - | - | - |
| 1778079304 | 21.11° C | 71% | 1009.9 hPa | 0 mm | - | - | - |
| 1778077504 | 21.67° C | 69% | 1009.8 hPa | 0 mm | - | - | - |
| 1778076904 | 22.78° C | 61% | 1009.8 hPa | 0 mm | - | - | - |
| 1778076004 | 23.33° C | 61% | 1009.8 hPa | 0 mm | - | - | - |
| 1778074804 | 22.78° C | 62% | 1010.2 hPa | 0 mm | - | - | - |
| 1778072704 | 21.67° C | 68% | 1010.5 hPa | 0 mm | - | - | - |
| 1778070304 | 19.44° C | 73% | 1010.5 hPa | 0 mm | - | - | - |
| 1778069404 | 18.89° C | 74% | 1010.6 hPa | 0 mm | - | - | - |
| 1778067904 | 18.33° C | 76% | 1010.8 hPa | 0 mm | - | - | - |
| 1778067004 | 17.78° C | 77% | 1010.8 hPa | 0 mm | - | - | - |
| 1778066704 | 17.78° C | 77% | 1010.8 hPa | 0 mm | - | - | - |
| 1778065504 | 17.22° C | 79% | 1010.6 hPa | 0 mm | - | - | - |
| 1778064904 | 16.67° C | 81% | 1010.6 hPa | 0 mm | - | - | - |
| 1778062504 | 16.11° C | 82% | 1010.6 hPa | 0 mm | - | - | - |
| 1778060104 | 16.67° C | 82% | 1010.5 hPa | 0 mm | - | - | - |
| 1778059804 | 16.67° C | 83% | 1010.5 hPa | 0 mm | - | - | - |
| 1778058904 | 16.67° C | 82% | 1010.6 hPa | 0 mm | - | - | - |
| 1778057704 | 16.67° C | 82% | 1010.7 hPa | 0 mm | - | - | - |
| 1778057404 | 16.67° C | 82% | 1010.8 hPa | 0 mm | - | - | - |
| 1778055604 | 16.67° C | 81% | 1010.8 hPa | 0 mm | - | - | - |
* Rain latest hour (hover to see other rain measurements)
** Current wind speed in m/s (hover to see current wind gust speed)